sensor_id;sensor_type;location;lat;lon;timestamp;P1;durP1;ratioP1;P2;durP2;ratioP2
58137;SDS011;43955;47.362;18.930;2023-08-06T00:01:42;5.87;;;4.10;;
58137;SDS011;43955;47.362;18.930;2023-08-06T00:04:12;6.20;;;4.45;;
58137;SDS011;43955;47.362;18.930;2023-08-06T00:06:39;6.05;;;4.10;;
58137;SDS011;43955;47.362;18.930;2023-08-06T00:09:06;7.00;;;4.20;;
58137;SDS011;43955;47.362;18.930;2023-08-06T00:11:34;6.50;;;4.35;;
58137;SDS011;43955;47.362;18.930;2023-08-06T00:14:01;7.60;;;4.60;;
58137;SDS011;43955;47.362;18.930;2023-08-06T00:16:29;7.00;;;4.87;;
58137;SDS011;43955;47.362;18.930;2023-08-06T00:18:57;6.75;;;4.35;;
58137;SDS011;43955;47.362;18.930;2023-08-06T00:21:25;6.90;;;4.18;;
58137;SDS011;43955;47.362;18.930;2023-08-06T00:23:53;5.68;;;3.42;;
58137;SDS011;43955;47.362;18.930;2023-08-06T00:26:22;8.35;;;4.85;;
58137;SDS011;43955;47.362;18.930;2023-08-06T00:28:49;6.65;;;4.37;;
58137;SDS011;43955;47.362;18.930;2023-08-06T00:31:17;6.40;;;3.50;;
58137;SDS011;43955;47.362;18.930;2023-08-06T00:33:45;7.68;;;4.80;;
58137;SDS011;43955;47.362;18.930;2023-08-06T00:36:13;5.78;;;3.12;;
58137;SDS011;43955;47.362;18.930;2023-08-06T00:38:41;7.28;;;4.05;;
58137;SDS011;43955;47.362;18.930;2023-08-06T00:41:09;6.40;;;4.00;;
58137;SDS011;43955;47.362;18.930;2023-08-06T00:43:37;5.47;;;4.35;;
58137;SDS011;43955;47.362;18.930;2023-08-06T00:46:05;6.90;;;4.18;;
58137;SDS011;43955;47.362;18.930;2023-08-06T00:48:33;5.90;;;4.25;;
58137;SDS011;43955;47.362;18.930;2023-08-06T00:51:01;6.70;;;4.45;;
58137;SDS011;43955;47.362;18.930;2023-08-06T00:53:29;6.68;;;4.57;;
58137;SDS011;43955;47.362;18.930;2023-08-06T00:55:57;7.50;;;4.45;;
58137;SDS011;43955;47.362;18.930;2023-08-06T00:58:25;6.05;;;3.95;;
58137;SDS011;43955;47.362;18.930;2023-08-06T01:00:53;6.20;;;4.45;;
58137;SDS011;43955;47.362;18.930;2023-08-06T01:03:21;8.23;;;4.82;;
58137;SDS011;43955;47.362;18.930;2023-08-06T01:05:49;8.23;;;4.47;;
58137;SDS011;43955;47.362;18.930;2023-08-06T01:08:28;8.77;;;4.47;;
58137;SDS011;43955;47.362;18.930;2023-08-06T01:11:22;7.68;;;4.25;;
58137;SDS011;43955;47.362;18.930;2023-08-06T01:13:55;7.12;;;4.37;;
58137;SDS011;43955;47.362;18.930;2023-08-06T01:16:27;7.05;;;4.30;;
58137;SDS011;43955;47.362;18.930;2023-08-06T01:18:56;7.47;;;4.22;;
58137;SDS011;43955;47.362;18.930;2023-08-06T01:21:25;6.25;;;4.18;;
58137;SDS011;43955;47.362;18.930;2023-08-06T01:23:52;6.65;;;4.57;;
58137;SDS011;43955;47.362;18.930;2023-08-06T01:29:07;7.53;;;3.25;;
58137;SDS011;43955;47.362;18.930;2023-08-06T01:31:39;5.37;;;3.33;;
58137;SDS011;43955;47.362;18.930;2023-08-06T01:34:11;6.20;;;3.78;;
58137;SDS011;43955;47.362;18.930;2023-08-06T01:36:44;8.45;;;3.72;;
58137;SDS011;43955;47.362;18.930;2023-08-06T01:39:13;9.05;;;3.87;;
58137;SDS011;43955;47.362;18.930;2023-08-06T01:41:41;6.47;;;3.65;;
58137;SDS011;43955;47.362;18.930;2023-08-06T01:44:09;7.45;;;3.72;;
58137;SDS011;43955;47.362;18.930;2023-08-06T01:46:37;8.88;;;3.85;;
58137;SDS011;43955;47.362;18.930;2023-08-06T01:49:04;6.47;;;3.70;;
58137;SDS011;43955;47.362;18.930;2023-08-06T01:51:32;5.32;;;3.55;;
58137;SDS011;43955;47.362;18.930;2023-08-06T01:53:59;4.85;;;3.03;;
58137;SDS011;43955;47.362;18.930;2023-08-06T01:56:26;6.57;;;3.70;;
58137;SDS011;43955;47.362;18.930;2023-08-06T01:58:54;5.72;;;3.60;;
58137;SDS011;43955;47.362;18.930;2023-08-06T02:01:21;8.32;;;4.07;;
58137;SDS011;43955;47.362;18.930;2023-08-06T02:03:50;5.53;;;3.60;;
58137;SDS011;43955;47.362;18.930;2023-08-06T02:06:18;7.12;;;4.00;;
58137;SDS011;43955;47.362;18.930;2023-08-06T02:08:46;5.35;;;3.45;;
58137;SDS011;43955;47.362;18.930;2023-08-06T02:11:17;5.68;;;3.67;;
58137;SDS011;43955;47.362;18.930;2023-08-06T02:13:45;6.45;;;4.07;;
58137;SDS011;43955;47.362;18.930;2023-08-06T02:16:16;5.35;;;3.65;;
58137;SDS011;43955;47.362;18.930;2023-08-06T02:18:44;6.55;;;3.62;;
58137;SDS011;43955;47.362;18.930;2023-08-06T02:21:13;9.38;;;4.00;;
58137;SDS011;43955;47.362;18.930;2023-08-06T02:23:41;5.95;;;3.87;;
58137;SDS011;43955;47.362;18.930;2023-08-06T02:26:09;6.15;;;3.67;;
58137;SDS011;43955;47.362;18.930;2023-08-06T02:28:37;5.25;;;3.12;;
58137;SDS011;43955;47.362;18.930;2023-08-06T02:31:04;5.57;;;3.40;;
58137;SDS011;43955;47.362;18.930;2023-08-06T02:33:35;5.87;;;3.37;;
58137;SDS011;43955;47.362;18.930;2023-08-06T02:36:02;5.03;;;3.58;;
58137;SDS011;43955;47.362;18.930;2023-08-06T02:38:31;3.92;;;2.55;;
58137;SDS011;43955;47.362;18.930;2023-08-06T02:41:01;5.18;;;3.12;;
58137;SDS011;43955;47.362;18.930;2023-08-06T02:43:29;4.32;;;2.42;;
58137;SDS011;43955;47.362;18.930;2023-08-06T02:45:58;5.82;;;2.50;;
58137;SDS011;43955;47.362;18.930;2023-08-06T02:48:26;5.32;;;3.22;;
58137;SDS011;43955;47.362;18.930;2023-08-06T02:50:56;3.85;;;2.62;;
58137;SDS011;43955;47.362;18.930;2023-08-06T02:53:26;6.20;;;2.90;;
58137;SDS011;43955;47.362;18.930;2023-08-06T02:55:53;6.25;;;2.85;;
58137;SDS011;43955;47.362;18.930;2023-08-06T02:58:23;5.57;;;2.87;;
58137;SDS011;43955;47.362;18.930;2023-08-06T03:01:03;5.55;;;3.30;;
58137;SDS011;43955;47.362;18.930;2023-08-06T03:03:32;8.27;;;3.33;;
58137;SDS011;43955;47.362;18.930;2023-08-06T03:06:01;5.35;;;2.87;;
58137;SDS011;43955;47.362;18.930;2023-08-06T03:08:29;6.15;;;3.08;;
58137;SDS011;43955;47.362;18.930;2023-08-06T03:10:57;4.37;;;2.53;;
58137;SDS011;43955;47.362;18.930;2023-08-06T03:13:25;5.82;;;2.47;;
58137;SDS011;43955;47.362;18.930;2023-08-06T03:15:57;4.05;;;2.47;;
58137;SDS011;43955;47.362;18.930;2023-08-06T03:18:26;6.72;;;2.60;;
58137;SDS011;43955;47.362;18.930;2023-08-06T03:20:55;4.50;;;2.40;;
58137;SDS011;43955;47.362;18.930;2023-08-06T03:23:24;4.78;;;2.40;;
58137;SDS011;43955;47.362;18.930;2023-08-06T03:25:52;5.22;;;2.42;;
58137;SDS011;43955;47.362;18.930;2023-08-06T03:28:20;4.22;;;2.53;;
58137;SDS011;43955;47.362;18.930;2023-08-06T03:30:58;5.35;;;2.70;;
58137;SDS011;43955;47.362;18.930;2023-08-06T03:33:30;6.55;;;3.37;;
58137;SDS011;43955;47.362;18.930;2023-08-06T03:35:57;4.82;;;2.78;;
58137;SDS011;43955;47.362;18.930;2023-08-06T03:38:25;6.80;;;4.12;;
58137;SDS011;43955;47.362;18.930;2023-08-06T03:40:53;6.05;;;4.30;;
58137;SDS011;43955;47.362;18.930;2023-08-06T03:43:22;6.87;;;4.15;;
58137;SDS011;43955;47.362;18.930;2023-08-06T03:45:50;6.68;;;3.70;;
58137;SDS011;43955;47.362;18.930;2023-08-06T03:48:18;6.03;;;3.67;;
58137;SDS011;43955;47.362;18.930;2023-08-06T03:50:45;4.95;;;3.20;;
58137;SDS011;43955;47.362;18.930;2023-08-06T03:53:13;5.12;;;3.35;;
58137;SDS011;43955;47.362;18.930;2023-08-06T03:55:43;4.80;;;2.90;;
58137;SDS011;43955;47.362;18.930;2023-08-06T03:58:11;4.90;;;3.05;;
58137;SDS011;43955;47.362;18.930;2023-08-06T04:00:39;7.65;;;3.08;;
58137;SDS011;43955;47.362;18.930;2023-08-06T04:03:07;4.75;;;2.25;;
58137;SDS011;43955;47.362;18.930;2023-08-06T04:05:35;3.60;;;2.15;;
58137;SDS011;43955;47.362;18.930;2023-08-06T04:08:02;7.50;;;2.72;;
58137;SDS011;43955;47.362;18.930;2023-08-06T04:10:30;3.37;;;2.08;;
58137;SDS011;43955;47.362;18.930;2023-08-06T04:12:58;3.05;;;1.55;;
58137;SDS011;43955;47.362;18.930;2023-08-06T04:15:26;4.65;;;1.90;;
58137;SDS011;43955;47.362;18.930;2023-08-06T04:17:54;2.10;;;1.42;;
58137;SDS011;43955;47.362;18.930;2023-08-06T04:20:26;3.25;;;1.75;;
58137;SDS011;43955;47.362;18.930;2023-08-06T04:22:54;2.35;;;1.50;;
58137;SDS011;43955;47.362;18.930;2023-08-06T04:25:24;4.15;;;1.50;;
58137;SDS011;43955;47.362;18.930;2023-08-06T04:27:52;2.65;;;1.70;;
58137;SDS011;43955;47.362;18.930;2023-08-06T04:30:19;6.53;;;1.80;;
58137;SDS011;43955;47.362;18.930;2023-08-06T04:32:49;3.03;;;1.30;;
58137;SDS011;43955;47.362;18.930;2023-08-06T04:35:17;3.08;;;1.48;;
58137;SDS011;43955;47.362;18.930;2023-08-06T04:37:46;2.58;;;1.40;;
58137;SDS011;43955;47.362;18.930;2023-08-06T04:40:14;2.37;;;1.15;;
58137;SDS011;43955;47.362;18.930;2023-08-06T04:42:42;2.78;;;0.88;;
58137;SDS011;43955;47.362;18.930;2023-08-06T04:45:09;2.28;;;1.00;;
58137;SDS011;43955;47.362;18.930;2023-08-06T04:47:37;1.52;;;0.82;;
58137;SDS011;43955;47.362;18.930;2023-08-06T04:50:05;1.48;;;0.60;;
58137;SDS011;43955;47.362;18.930;2023-08-06T04:52:33;2.65;;;0.93;;
58137;SDS011;43955;47.362;18.930;2023-08-06T04:55:01;1.98;;;0.93;;
58137;SDS011;43955;47.362;18.930;2023-08-06T04:57:28;1.37;;;0.70;;
58137;SDS011;43955;47.362;18.930;2023-08-06T04:59:55;1.02;;;0.50;;
58137;SDS011;43955;47.362;18.930;2023-08-06T05:02:23;1.12;;;0.60;;
58137;SDS011;43955;47.362;18.930;2023-08-06T05:04:50;1.40;;;0.50;;
58137;SDS011;43955;47.362;18.930;2023-08-06T05:07:18;1.35;;;0.30;;
58137;SDS011;43955;47.362;18.930;2023-08-06T05:09:45;0.88;;;0.40;;
58137;SDS011;43955;47.362;18.930;2023-08-06T05:12:13;2.10;;;0.50;;
58137;SDS011;43955;47.362;18.930;2023-08-06T05:14:40;2.15;;;0.37;;
58137;SDS011;43955;47.362;18.930;2023-08-06T05:17:08;0.75;;;0.20;;
58137;SDS011;43955;47.362;18.930;2023-08-06T05:19:36;1.60;;;0.30;;
58137;SDS011;43955;47.362;18.930;2023-08-06T05:22:03;0.95;;;0.20;;
58137;SDS011;43955;47.362;18.930;2023-08-06T05:24:31;0.40;;;0.20;;
58137;SDS011;43955;47.362;18.930;2023-08-06T05:26:59;0.25;;;0.13;;
58137;SDS011;43955;47.362;18.930;2023-08-06T05:29:27;3.75;;;0.22;;
58137;SDS011;43955;47.362;18.930;2023-08-06T05:31:54;1.45;;;0.20;;
58137;SDS011;43955;47.362;18.930;2023-08-06T05:34:22;0.52;;;0.20;;
58137;SDS011;43955;47.362;18.930;2023-08-06T05:36:50;1.65;;;0.10;;
58137;SDS011;43955;47.362;18.930;2023-08-06T05:39:17;0.00;;;0.00;;
58137;SDS011;43955;47.362;18.930;2023-08-06T05:41:44;0.43;;;0.10;;
58137;SDS011;43955;47.362;18.930;2023-08-06T05:44:13;0.00;;;0.00;;
58137;SDS011;43955;47.362;18.930;2023-08-06T05:46:40;0.10;;;0.10;;
58137;SDS011;43955;47.362;18.930;2023-08-06T05:49:07;0.47;;;0.10;;
58137;SDS011;43955;47.362;18.930;2023-08-06T05:51:35;1.10;;;0.10;;
58137;SDS011;43955;47.362;18.930;2023-08-06T05:54:04;1.23;;;0.08;;
58137;SDS011;43955;47.362;18.930;2023-08-06T05:56:31;0.10;;;0.10;;
58137;SDS011;43955;47.362;18.930;2023-08-06T05:58:59;0.10;;;0.10;;
58137;SDS011;43955;47.362;18.930;2023-08-06T06:01:27;0.40;;;0.10;;
58137;SDS011;43955;47.362;18.930;2023-08-06T06:03:54;0.65;;;0.20;;
58137;SDS011;43955;47.362;18.930;2023-08-06T06:06:22;0.37;;;0.10;;
58137;SDS011;43955;47.362;18.930;2023-08-06T06:08:50;0.20;;;0.10;;
58137;SDS011;43955;47.362;18.930;2023-08-06T06:11:19;0.47;;;0.20;;
58137;SDS011;43955;47.362;18.930;2023-08-06T06:13:50;0.28;;;0.20;;
58137;SDS011;43955;47.362;18.930;2023-08-06T06:16:18;1.75;;;0.40;;
58137;SDS011;43955;47.362;18.930;2023-08-06T06:18:46;0.45;;;0.25;;
58137;SDS011;43955;47.362;18.930;2023-08-06T06:21:14;0.45;;;0.13;;
58137;SDS011;43955;47.362;18.930;2023-08-06T06:23:42;0.50;;;0.15;;
58137;SDS011;43955;47.362;18.930;2023-08-06T06:26:09;0.60;;;0.30;;
58137;SDS011;43955;47.362;18.930;2023-08-06T06:28:37;1.45;;;0.30;;
58137;SDS011;43955;47.362;18.930;2023-08-06T06:31:04;1.37;;;0.20;;
58137;SDS011;43955;47.362;18.930;2023-08-06T06:33:32;0.20;;;0.20;;
58137;SDS011;43955;47.362;18.930;2023-08-06T06:36:01;0.52;;;0.20;;
58137;SDS011;43955;47.362;18.930;2023-08-06T06:38:31;0.28;;;0.10;;
58137;SDS011;43955;47.362;18.930;2023-08-06T06:40:58;0.52;;;0.32;;
58137;SDS011;43955;47.362;18.930;2023-08-06T06:43:25;0.47;;;0.20;;
58137;SDS011;43955;47.362;18.930;2023-08-06T06:45:58;0.55;;;0.30;;
58137;SDS011;43955;47.362;18.930;2023-08-06T06:48:27;0.45;;;0.20;;
58137;SDS011;43955;47.362;18.930;2023-08-06T06:50:57;0.35;;;0.20;;
58137;SDS011;43955;47.362;18.930;2023-08-06T06:53:25;0.22;;;0.15;;
58137;SDS011;43955;47.362;18.930;2023-08-06T06:55:56;3.30;;;0.30;;
58137;SDS011;43955;47.362;18.930;2023-08-06T06:58:29;0.20;;;0.20;;
58137;SDS011;43955;47.362;18.930;2023-08-06T07:00:57;0.10;;;0.10;;
58137;SDS011;43955;47.362;18.930;2023-08-06T07:03:24;0.30;;;0.17;;
58137;SDS011;43955;47.362;18.930;2023-08-06T07:05:56;0.32;;;0.10;;
58137;SDS011;43955;47.362;18.930;2023-08-06T07:08:26;0.43;;;0.13;;
58137;SDS011;43955;47.362;18.930;2023-08-06T07:11:04;0.17;;;0.10;;
58137;SDS011;43955;47.362;18.930;2023-08-06T07:13:33;0.98;;;0.20;;
58137;SDS011;43955;47.362;18.930;2023-08-06T07:16:01;0.10;;;0.10;;
58137;SDS011;43955;47.362;18.930;2023-08-06T07:18:28;0.45;;;0.10;;
58137;SDS011;43955;47.362;18.930;2023-08-06T07:20:56;0.40;;;0.20;;
58137;SDS011;43955;47.362;18.930;2023-08-06T07:23:24;0.43;;;0.20;;
58137;SDS011;43955;47.362;18.930;2023-08-06T07:25:53;0.10;;;0.10;;
58137;SDS011;43955;47.362;18.930;2023-08-06T07:28:21;0.10;;;0.10;;
58137;SDS011;43955;47.362;18.930;2023-08-06T07:30:50;0.20;;;0.10;;
58137;SDS011;43955;47.362;18.930;2023-08-06T07:33:18;0.75;;;0.10;;
58137;SDS011;43955;47.362;18.930;2023-08-06T07:35:47;1.25;;;0.10;;
58137;SDS011;43955;47.362;18.930;2023-08-06T07:38:14;0.37;;;0.30;;
58137;SDS011;43955;47.362;18.930;2023-08-06T07:40:42;0.05;;;0.05;;
58137;SDS011;43955;47.362;18.930;2023-08-06T07:43:11;0.10;;;0.10;;
58137;SDS011;43955;47.362;18.930;2023-08-06T07:45:39;1.37;;;0.20;;
58137;SDS011;43955;47.362;18.930;2023-08-06T07:48:07;0.77;;;0.20;;
58137;SDS011;43955;47.362;18.930;2023-08-06T07:50:35;0.62;;;0.30;;
58137;SDS011;43955;47.362;18.930;2023-08-06T07:53:02;0.22;;;0.20;;
58137;SDS011;43955;47.362;18.930;2023-08-06T07:55:30;0.40;;;0.20;;
58137;SDS011;43955;47.362;18.930;2023-08-06T07:57:57;0.45;;;0.20;;
58137;SDS011;43955;47.362;18.930;2023-08-06T08:00:24;2.47;;;0.28;;
58137;SDS011;43955;47.362;18.930;2023-08-06T08:02:55;0.55;;;0.25;;
58137;SDS011;43955;47.362;18.930;2023-08-06T08:05:24;0.85;;;0.30;;
58137;SDS011;43955;47.362;18.930;2023-08-06T08:07:51;0.13;;;0.13;;
58137;SDS011;43955;47.362;18.930;2023-08-06T08:10:21;0.77;;;0.20;;
58137;SDS011;43955;47.362;18.930;2023-08-06T08:12:49;0.73;;;0.35;;
58137;SDS011;43955;47.362;18.930;2023-08-06T08:15:16;0.45;;;0.30;;
58137;SDS011;43955;47.362;18.930;2023-08-06T08:17:45;0.20;;;0.17;;
58137;SDS011;43955;47.362;18.930;2023-08-06T08:20:15;0.65;;;0.35;;
58137;SDS011;43955;47.362;18.930;2023-08-06T08:22:44;0.85;;;0.35;;
58137;SDS011;43955;47.362;18.930;2023-08-06T08:25:13;0.40;;;0.20;;
58137;SDS011;43955;47.362;18.930;2023-08-06T08:27:41;0.50;;;0.30;;
58137;SDS011;43955;47.362;18.930;2023-08-06T08:30:09;1.27;;;0.30;;
58137;SDS011;43955;47.362;18.930;2023-08-06T08:32:38;0.50;;;0.30;;
58137;SDS011;43955;47.362;18.930;2023-08-06T08:35:05;0.88;;;0.43;;
58137;SDS011;43955;47.362;18.930;2023-08-06T08:37:33;0.95;;;0.50;;
58137;SDS011;43955;47.362;18.930;2023-08-06T08:40:01;1.27;;;0.82;;
58137;SDS011;43955;47.362;18.930;2023-08-06T08:42:30;0.90;;;0.50;;
58137;SDS011;43955;47.362;18.930;2023-08-06T08:44:57;0.80;;;0.60;;
58137;SDS011;43955;47.362;18.930;2023-08-06T08:47:26;1.02;;;0.62;;
58137;SDS011;43955;47.362;18.930;2023-08-06T08:49:54;1.42;;;0.70;;
58137;SDS011;43955;47.362;18.930;2023-08-06T08:52:25;1.25;;;0.70;;
58137;SDS011;43955;47.362;18.930;2023-08-06T08:54:55;1.23;;;0.70;;
58137;SDS011;43955;47.362;18.930;2023-08-06T08:57:24;1.37;;;1.00;;
58137;SDS011;43955;47.362;18.930;2023-08-06T08:59:51;2.05;;;0.80;;
58137;SDS011;43955;47.362;18.930;2023-08-06T09:02:19;0.98;;;0.60;;
58137;SDS011;43955;47.362;18.930;2023-08-06T09:04:48;2.28;;;0.70;;
58137;SDS011;43955;47.362;18.930;2023-08-06T09:07:18;1.35;;;0.60;;
58137;SDS011;43955;47.362;18.930;2023-08-06T09:09:48;1.30;;;0.65;;
58137;SDS011;43955;47.362;18.930;2023-08-06T09:12:17;1.23;;;0.60;;
58137;SDS011;43955;47.362;18.930;2023-08-06T09:14:45;1.58;;;0.90;;
58137;SDS011;43955;47.362;18.930;2023-08-06T09:17:15;2.10;;;0.88;;
58137;SDS011;43955;47.362;18.930;2023-08-06T09:19:46;0.98;;;0.70;;
58137;SDS011;43955;47.362;18.930;2023-08-06T09:22:17;1.10;;;0.60;;
58137;SDS011;43955;47.362;18.930;2023-08-06T09:24:45;1.65;;;1.00;;
58137;SDS011;43955;47.362;18.930;2023-08-06T09:27:16;2.08;;;0.80;;
58137;SDS011;43955;47.362;18.930;2023-08-06T09:29:44;1.40;;;0.80;;
58137;SDS011;43955;47.362;18.930;2023-08-06T09:32:12;1.10;;;0.57;;
58137;SDS011;43955;47.362;18.930;2023-08-06T09:34:41;0.80;;;0.50;;
58137;SDS011;43955;47.362;18.930;2023-08-06T09:37:10;1.25;;;0.70;;
58137;SDS011;43955;47.362;18.930;2023-08-06T09:39:40;2.80;;;0.70;;
58137;SDS011;43955;47.362;18.930;2023-08-06T09:42:08;1.90;;;0.90;;
58137;SDS011;43955;47.362;18.930;2023-08-06T09:44:36;1.08;;;0.55;;
58137;SDS011;43955;47.362;18.930;2023-08-06T09:47:06;1.25;;;0.70;;
58137;SDS011;43955;47.362;18.930;2023-08-06T09:52:03;1.02;;;0.50;;
58137;SDS011;43955;47.362;18.930;2023-08-06T09:54:32;5.40;;;1.08;;
58137;SDS011;43955;47.362;18.930;2023-08-06T09:57:03;5.35;;;1.02;;
58137;SDS011;43955;47.362;18.930;2023-08-06T09:59:32;1.20;;;0.62;;
58137;SDS011;43955;47.362;18.930;2023-08-06T10:02:00;1.12;;;0.52;;
58137;SDS011;43955;47.362;18.930;2023-08-06T10:04:30;0.88;;;0.60;;
58137;SDS011;43955;47.362;18.930;2023-08-06T10:07:07;2.37;;;0.60;;
58137;SDS011;43955;47.362;18.930;2023-08-06T10:09:36;0.68;;;0.37;;
58137;SDS011;43955;47.362;18.930;2023-08-06T10:12:06;1.20;;;0.57;;
58137;SDS011;43955;47.362;18.930;2023-08-06T10:14:35;1.58;;;0.70;;
58137;SDS011;43955;47.362;18.930;2023-08-06T10:17:05;1.55;;;0.70;;
58137;SDS011;43955;47.362;18.930;2023-08-06T10:19:34;0.70;;;0.40;;
58137;SDS011;43955;47.362;18.930;2023-08-06T10:22:08;1.55;;;0.70;;
58137;SDS011;43955;47.362;18.930;2023-08-06T10:24:50;1.15;;;0.60;;
58137;SDS011;43955;47.362;18.930;2023-08-06T10:27:29;2.92;;;0.68;;
58137;SDS011;43955;47.362;18.930;2023-08-06T10:32:54;1.55;;;0.70;;
58137;SDS011;43955;47.362;18.930;2023-08-06T10:38:04;0.90;;;0.62;;
58137;SDS011;43955;47.362;18.930;2023-08-06T10:40:39;4.00;;;0.77;;
58137;SDS011;43955;47.362;18.930;2023-08-06T10:43:08;1.30;;;0.82;;
58137;SDS011;43955;47.362;18.930;2023-08-06T10:45:58;3.25;;;0.80;;
58137;SDS011;43955;47.362;18.930;2023-08-06T10:51:13;2.78;;;0.77;;
58137;SDS011;43955;47.362;18.930;2023-08-06T10:53:42;2.12;;;0.90;;
58137;SDS011;43955;47.362;18.930;2023-08-06T10:56:24;1.67;;;0.77;;
58137;SDS011;43955;47.362;18.930;2023-08-06T10:58:56;1.75;;;0.88;;
58137;SDS011;43955;47.362;18.930;2023-08-06T11:01:24;1.08;;;0.50;;
58137;SDS011;43955;47.362;18.930;2023-08-06T11:03:51;2.05;;;0.90;;
58137;SDS011;43955;47.362;18.930;2023-08-06T11:06:21;1.40;;;0.80;;
58137;SDS011;43955;47.362;18.930;2023-08-06T11:08:51;1.48;;;0.70;;
58137;SDS011;43955;47.362;18.930;2023-08-06T11:11:21;1.40;;;0.80;;
58137;SDS011;43955;47.362;18.930;2023-08-06T11:13:50;1.55;;;0.70;;
58137;SDS011;43955;47.362;18.930;2023-08-06T11:16:20;1.70;;;0.70;;
58137;SDS011;43955;47.362;18.930;2023-08-06T11:18:49;3.78;;;1.12;;
58137;SDS011;43955;47.362;18.930;2023-08-06T11:21:19;1.42;;;0.70;;
58137;SDS011;43955;47.362;18.930;2023-08-06T11:23:48;2.00;;;0.90;;
58137;SDS011;43955;47.362;18.930;2023-08-06T11:26:19;1.42;;;0.73;;
58137;SDS011;43955;47.362;18.930;2023-08-06T11:28:48;1.23;;;0.68;;
58137;SDS011;43955;47.362;18.930;2023-08-06T11:31:20;1.65;;;0.77;;
58137;SDS011;43955;47.362;18.930;2023-08-06T11:33:51;1.45;;;1.00;;
58137;SDS011;43955;47.362;18.930;2023-08-06T11:36:31;1.37;;;0.70;;
58137;SDS011;43955;47.362;18.930;2023-08-06T11:38:59;1.90;;;0.85;;
58137;SDS011;43955;47.362;18.930;2023-08-06T11:41:29;1.90;;;0.95;;
58137;SDS011;43955;47.362;18.930;2023-08-06T11:43:57;2.60;;;0.90;;
58137;SDS011;43955;47.362;18.930;2023-08-06T11:46:25;4.97;;;1.10;;
58137;SDS011;43955;47.362;18.930;2023-08-06T11:48:55;1.17;;;0.65;;
58137;SDS011;43955;47.362;18.930;2023-08-06T11:51:24;2.05;;;1.08;;
58137;SDS011;43955;47.362;18.930;2023-08-06T11:53:57;2.53;;;0.90;;
58137;SDS011;43955;47.362;18.930;2023-08-06T11:56:25;2.15;;;1.00;;
58137;SDS011;43955;47.362;18.930;2023-08-06T11:58:54;1.87;;;0.90;;
58137;SDS011;43955;47.362;18.930;2023-08-06T12:01:25;3.58;;;1.02;;
58137;SDS011;43955;47.362;18.930;2023-08-06T12:03:58;2.03;;;1.05;;
58137;SDS011;43955;47.362;18.930;2023-08-06T12:06:27;2.03;;;1.10;;
58137;SDS011;43955;47.362;18.930;2023-08-06T12:08:56;1.75;;;0.90;;
58137;SDS011;43955;47.362;18.930;2023-08-06T12:11:24;1.98;;;1.20;;
58137;SDS011;43955;47.362;18.930;2023-08-06T12:13:51;1.80;;;1.00;;
58137;SDS011;43955;47.362;18.930;2023-08-06T12:16:19;1.85;;;1.15;;
58137;SDS011;43955;47.362;18.930;2023-08-06T12:18:51;2.45;;;1.10;;
58137;SDS011;43955;47.362;18.930;2023-08-06T12:21:18;2.10;;;1.40;;
58137;SDS011;43955;47.362;18.930;2023-08-06T12:23:45;2.62;;;1.10;;
58137;SDS011;43955;47.362;18.930;2023-08-06T12:26:13;1.50;;;1.00;;
58137;SDS011;43955;47.362;18.930;2023-08-06T12:28:41;2.08;;;1.00;;
58137;SDS011;43955;47.362;18.930;2023-08-06T12:31:09;1.75;;;0.90;;
58137;SDS011;43955;47.362;18.930;2023-08-06T12:33:37;1.10;;;0.60;;
58137;SDS011;43955;47.362;18.930;2023-08-06T12:36:05;1.10;;;0.57;;
58137;SDS011;43955;47.362;18.930;2023-08-06T12:38:32;2.28;;;0.62;;
58137;SDS011;43955;47.362;18.930;2023-08-06T12:41:01;1.20;;;0.73;;
58137;SDS011;43955;47.362;18.930;2023-08-06T12:43:28;1.33;;;0.60;;
58137;SDS011;43955;47.362;18.930;2023-08-06T12:45:56;1.40;;;0.93;;
58137;SDS011;43955;47.362;18.930;2023-08-06T12:48:24;1.27;;;0.70;;
58137;SDS011;43955;47.362;18.930;2023-08-06T12:50:52;2.83;;;1.10;;
58137;SDS011;43955;47.362;18.930;2023-08-06T12:53:20;2.28;;;0.90;;
58137;SDS011;43955;47.362;18.930;2023-08-06T12:55:49;2.00;;;1.00;;
58137;SDS011;43955;47.362;18.930;2023-08-06T12:58:18;3.37;;;1.05;;
58137;SDS011;43955;47.362;18.930;2023-08-06T13:00:46;2.08;;;1.30;;
58137;SDS011;43955;47.362;18.930;2023-08-06T13:03:13;1.65;;;1.00;;
58137;SDS011;43955;47.362;18.930;2023-08-06T13:05:42;1.70;;;0.90;;
58137;SDS011;43955;47.362;18.930;2023-08-06T13:08:13;2.53;;;1.58;;
58137;SDS011;43955;47.362;18.930;2023-08-06T13:10:40;1.60;;;1.02;;
58137;SDS011;43955;47.362;18.930;2023-08-06T13:13:08;3.30;;;1.37;;
58137;SDS011;43955;47.362;18.930;2023-08-06T13:15:38;2.25;;;1.15;;
58137;SDS011;43955;47.362;18.930;2023-08-06T13:18:05;3.58;;;1.40;;
58137;SDS011;43955;47.362;18.930;2023-08-06T13:20:33;2.33;;;1.23;;
58137;SDS011;43955;47.362;18.930;2023-08-06T13:23:01;2.40;;;1.30;;
58137;SDS011;43955;47.362;18.930;2023-08-06T13:25:30;2.10;;;1.20;;
58137;SDS011;43955;47.362;18.930;2023-08-06T13:28:04;2.60;;;1.45;;
58137;SDS011;43955;47.362;18.930;2023-08-06T13:30:31;2.75;;;1.58;;
58137;SDS011;43955;47.362;18.930;2023-08-06T13:33:02;2.70;;;1.52;;
58137;SDS011;43955;47.362;18.930;2023-08-06T13:35:34;2.80;;;1.33;;
58137;SDS011;43955;47.362;18.930;2023-08-06T13:38:01;2.53;;;1.48;;
58137;SDS011;43955;47.362;18.930;2023-08-06T13:40:33;3.20;;;1.55;;
58137;SDS011;43955;47.362;18.930;2023-08-06T13:43:01;2.83;;;1.60;;
58137;SDS011;43955;47.362;18.930;2023-08-06T13:45:28;2.25;;;1.42;;
58137;SDS011;43955;47.362;18.930;2023-08-06T13:48:00;3.42;;;1.50;;
58137;SDS011;43955;47.362;18.930;2023-08-06T13:50:28;2.67;;;1.40;;
58137;SDS011;43955;47.362;18.930;2023-08-06T13:52:57;4.25;;;1.67;;
58137;SDS011;43955;47.362;18.930;2023-08-06T13:55:25;2.25;;;1.35;;
58137;SDS011;43955;47.362;18.930;2023-08-06T13:57:53;2.87;;;1.60;;
58137;SDS011;43955;47.362;18.930;2023-08-06T14:00:22;2.33;;;1.33;;
58137;SDS011;43955;47.362;18.930;2023-08-06T14:02:50;3.67;;;1.27;;
58137;SDS011;43955;47.362;18.930;2023-08-06T14:05:19;2.17;;;1.30;;
58137;SDS011;43955;47.362;18.930;2023-08-06T14:07:47;3.83;;;1.77;;
58137;SDS011;43955;47.362;18.930;2023-08-06T14:10:16;2.35;;;1.42;;
58137;SDS011;43955;47.362;18.930;2023-08-06T14:12:44;3.78;;;1.45;;
58137;SDS011;43955;47.362;18.930;2023-08-06T14:15:25;4.07;;;1.60;;
58137;SDS011;43955;47.362;18.930;2023-08-06T14:17:55;2.53;;;1.50;;
58137;SDS011;43955;47.362;18.930;2023-08-06T14:20:22;2.75;;;1.70;;
58137;SDS011;43955;47.362;18.930;2023-08-06T14:22:52;2.30;;;1.50;;
58137;SDS011;43955;47.362;18.930;2023-08-06T14:25:20;3.37;;;1.83;;
58137;SDS011;43955;47.362;18.930;2023-08-06T14:27:48;2.80;;;1.58;;
58137;SDS011;43955;47.362;18.930;2023-08-06T14:30:18;3.03;;;1.42;;
58137;SDS011;43955;47.362;18.930;2023-08-06T14:32:46;1.75;;;1.23;;
58137;SDS011;43955;47.362;18.930;2023-08-06T14:35:16;2.33;;;1.23;;
58137;SDS011;43955;47.362;18.930;2023-08-06T14:37:44;2.37;;;1.20;;
58137;SDS011;43955;47.362;18.930;2023-08-06T14:40:12;2.60;;;1.30;;
58137;SDS011;43955;47.362;18.930;2023-08-06T14:42:40;2.67;;;1.30;;
58137;SDS011;43955;47.362;18.930;2023-08-06T14:45:08;3.58;;;1.30;;
58137;SDS011;43955;47.362;18.930;2023-08-06T14:47:37;2.70;;;1.40;;
58137;SDS011;43955;47.362;18.930;2023-08-06T14:50:05;2.53;;;1.23;;
58137;SDS011;43955;47.362;18.930;2023-08-06T14:52:34;2.00;;;1.10;;
58137;SDS011;43955;47.362;18.930;2023-08-06T14:55:01;1.77;;;1.10;;
58137;SDS011;43955;47.362;18.930;2023-08-06T14:57:31;1.70;;;1.02;;